createdAt,value
2019-06-26T00:03:47.194Z,25.46
2019-06-26T00:08:51.470Z,25.51
2019-06-26T00:13:55.761Z,25.37
2019-06-26T00:19:00.053Z,25.22
2019-06-26T00:24:04.363Z,25.22
2019-06-26T00:29:08.656Z,25.12
2019-06-26T00:34:12.983Z,25.01
2019-06-26T00:39:17.238Z,25.12
2019-06-26T00:44:21.627Z,24.91
2019-06-26T00:49:25.844Z,24.88
2019-06-26T00:54:30.128Z,24.92
2019-06-26T00:59:34.432Z,24.81
2019-06-26T01:04:53.487Z,24.83
2019-06-26T01:09:57.782Z,24.63
2019-06-26T01:15:02.121Z,24.66
2019-06-26T01:20:08.610Z,24.66
2019-06-26T01:25:14.075Z,24.64
2019-06-26T01:30:18.793Z,24.62
2019-06-26T01:35:23.094Z,24.61
2019-06-26T01:40:27.403Z,24.57
2019-06-26T01:45:31.801Z,24.57
2019-06-26T01:50:36.044Z,24.51
2019-06-26T01:55:40.367Z,24.56
2019-06-26T02:00:44.697Z,24.53
2019-06-26T02:05:49.077Z,24.47
2019-06-26T02:10:53.412Z,24.53
2019-06-26T02:15:57.729Z,24.49
2019-06-26T02:21:02.032Z,24.42
2019-06-26T02:26:06.405Z,24.34
2019-06-26T02:31:10.751Z,24.42
2019-06-26T02:36:15.036Z,24.32
2019-06-26T02:41:19.386Z,24.36
2019-06-26T02:46:23.709Z,24.26
2019-06-26T02:51:28.010Z,24.29
2019-06-26T02:56:32.346Z,24.16
2019-06-26T03:01:36.666Z,24.10
2019-06-26T03:06:40.996Z,24.20
2019-06-26T03:11:45.326Z,24.24
2019-06-26T03:16:49.622Z,24.27
2019-06-26T03:21:53.920Z,24.26
2019-06-26T03:26:58.229Z,24.22
2019-06-26T03:32:02.551Z,24.23
2019-06-26T03:37:06.860Z,24.23
2019-06-26T03:42:11.875Z,24.36
2019-06-26T03:47:16.195Z,24.37
2019-06-26T03:52:20.490Z,24.03
2019-06-26T03:57:24.775Z,24.36
2019-06-26T04:02:29.065Z,24.25
2019-06-26T04:07:33.372Z,24.57
2019-06-26T04:12:37.651Z,24.62
2019-06-26T04:17:41.968Z,24.77
2019-06-26T04:22:47.635Z,25.03
2019-06-26T04:27:52.216Z,25.17
2019-06-26T04:32:56.518Z,25.60
2019-06-26T04:38:00.830Z,25.61
2019-06-26T04:43:05.225Z,25.98
2019-06-26T04:48:09.572Z,26.28
2019-06-26T04:53:13.853Z,26.57
2019-06-26T04:58:18.133Z,26.52
2019-06-26T05:03:22.417Z,26.85
2019-06-26T05:08:26.711Z,27.22
2019-06-26T05:13:31.025Z,27.24
2019-06-26T05:18:35.290Z,27.15
2019-06-26T05:23:39.583Z,27.85
2019-06-26T05:28:43.901Z,27.74
2019-06-26T05:33:48.268Z,27.92
2019-06-26T05:38:52.515Z,28.33
2019-06-26T05:43:56.832Z,28.29
2019-06-26T05:49:01.205Z,28.60
2019-06-26T05:54:05.543Z,28.82
2019-06-26T05:59:09.807Z,29.00
2019-06-26T06:04:14.112Z,29.01
2019-06-26T06:09:18.436Z,29.21
2019-06-26T06:14:22.757Z,29.22
2019-06-26T06:19:28.193Z,29.76
2019-06-26T06:24:32.573Z,29.19
2019-06-26T06:29:36.885Z,29.95
2019-06-26T06:34:41.295Z,29.97
2019-06-26T06:39:45.588Z,30.49
2019-06-26T06:44:49.872Z,30.70
2019-06-26T06:49:54.162Z,30.90
2019-06-26T06:54:58.600Z,30.33
2019-06-26T07:00:02.952Z,30.85
2019-06-26T07:05:08.993Z,30.80
2019-06-26T07:10:13.291Z,30.92
2019-06-26T07:15:17.954Z,31.60
2019-06-26T07:20:22.362Z,31.57
2019-06-26T07:25:26.638Z,31.89
2019-06-26T07:30:30.955Z,31.84
2019-06-26T07:35:35.291Z,31.83
2019-06-26T07:40:39.596Z,31.92
2019-06-26T07:45:43.903Z,32.13
2019-06-26T07:50:49.555Z,32.40
2019-06-26T07:55:53.823Z,32.51
2019-06-26T08:00:58.127Z,32.61
2019-06-26T08:06:02.409Z,32.98
2019-06-26T08:11:06.778Z,32.53
2019-06-26T08:16:11.159Z,32.70
2019-06-26T08:21:15.432Z,32.90
2019-06-26T08:26:20.739Z,33.52
2019-06-26T08:31:24.997Z,33.23
2019-06-26T08:36:29.346Z,33.21
2019-06-26T08:41:33.627Z,33.30
2019-06-26T08:46:37.897Z,33.34
2019-06-26T08:51:42.167Z,33.43
2019-06-26T08:56:46.453Z,33.36
2019-06-26T09:01:50.825Z,33.41
2019-06-26T09:06:55.143Z,33.75
2019-06-26T09:11:59.447Z,33.62
2019-06-26T09:17:03.787Z,33.67
2019-06-26T09:22:09.389Z,33.50
2019-06-26T09:27:15.047Z,33.61
2019-06-26T09:32:19.584Z,33.59
2019-06-26T09:37:23.905Z,33.50
2019-06-26T09:42:28.207Z,33.66
2019-06-26T09:47:32.499Z,33.91
2019-06-26T09:52:36.781Z,33.97
2019-06-26T09:57:41.078Z,33.97
2019-06-26T10:02:45.350Z,34.01
2019-06-26T10:07:49.624Z,33.68
2019-06-26T10:12:53.931Z,34.44
2019-06-26T10:17:58.256Z,33.94
2019-06-26T10:23:02.543Z,34.07
2019-06-26T10:28:06.822Z,34.13
2019-06-26T10:33:11.131Z,34.10
2019-06-26T10:38:15.401Z,34.00
2019-06-26T10:43:19.681Z,34.32
2019-06-26T10:48:23.978Z,34.21
2019-06-26T10:53:28.369Z,34.62
2019-06-26T10:58:32.636Z,34.52
2019-06-26T11:03:36.931Z,34.24
2019-06-26T11:08:41.242Z,34.53
2019-06-26T11:13:45.546Z,34.65
2019-06-26T11:18:49.850Z,34.27
2019-06-26T11:23:54.123Z,34.72
2019-06-26T11:28:58.398Z,34.56
2019-06-26T11:34:03.520Z,34.63
2019-06-26T11:39:08.220Z,34.94
2019-06-26T11:44:12.429Z,35.19
2019-06-26T11:49:16.744Z,34.57
2019-06-26T11:54:21.031Z,35.04
2019-06-26T11:59:25.440Z,34.51
2019-06-26T12:04:29.770Z,34.46
2019-06-26T12:09:34.043Z,34.73
2019-06-26T12:14:38.371Z,34.92
2019-06-26T12:19:42.653Z,35.40
2019-06-26T12:24:46.920Z,34.92
2019-06-26T12:29:51.225Z,34.85
2019-06-26T12:34:55.646Z,35.68
2019-06-26T12:40:00.574Z,35.49
2019-06-26T12:45:09.299Z,34.89
2019-06-26T12:50:15.284Z,35.15
2019-06-26T12:55:19.665Z,35.46
2019-06-26T13:00:23.964Z,34.88
2019-06-26T13:05:28.228Z,35.16
2019-06-26T13:10:48.514Z,35.18
2019-06-26T13:15:38.559Z,35.01
2019-06-26T13:20:53.018Z,35.16
2019-06-26T13:25:49.004Z,34.91
2019-06-26T13:30:55.960Z,35.55
2019-06-26T13:36:00.241Z,35.94
2019-06-26T13:41:04.535Z,35.62
2019-06-26T13:46:08.880Z,35.27
2019-06-26T13:51:13.307Z,35.36
2019-06-26T13:56:17.574Z,35.63
2019-06-26T14:01:23.157Z,35.54
2019-06-26T14:06:27.677Z,35.02
2019-06-26T14:11:31.977Z,35.53
2019-06-26T14:16:36.290Z,35.82
2019-06-26T14:21:40.549Z,36.16
2019-06-26T14:26:44.912Z,35.32
2019-06-26T14:31:49.296Z,35.62
2019-06-26T14:36:53.655Z,35.62
2019-06-26T14:41:57.928Z,35.59
2019-06-26T14:47:02.240Z,35.58
2019-06-26T14:52:06.594Z,35.28
2019-06-26T14:57:10.941Z,35.31
2019-06-26T15:02:15.242Z,35.46
2019-06-26T15:07:19.515Z,35.21
2019-06-26T15:12:23.837Z,35.71
2019-06-26T15:17:28.122Z,35.02
2019-06-26T15:22:32.439Z,35.40
2019-06-26T15:27:36.831Z,35.58
2019-06-26T15:32:41.211Z,35.34
2019-06-26T15:37:45.481Z,35.49
2019-06-26T15:42:49.836Z,35.47
2019-06-26T15:47:54.153Z,35.25
2019-06-26T15:52:59.519Z,35.52
2019-06-26T15:58:03.817Z,35.23
2019-06-26T16:03:08.114Z,35.39
2019-06-26T16:08:12.384Z,35.23
2019-06-26T16:13:16.774Z,35.55
2019-06-26T16:18:31.743Z,35.23
2019-06-26T16:23:36.041Z,35.24
2019-06-26T16:28:41.335Z,35.01
2019-06-26T16:33:45.710Z,35.20
2019-06-26T16:38:51.631Z,34.97
2019-06-26T16:43:56.272Z,35.11
2019-06-26T16:49:00.584Z,34.88
2019-06-26T16:54:05.840Z,34.99
2019-06-26T16:59:10.138Z,34.77
2019-06-26T17:04:14.404Z,34.77
2019-06-26T17:09:18.715Z,34.48
2019-06-26T17:14:23.025Z,34.91
2019-06-26T17:19:27.345Z,34.39
2019-06-26T17:24:31.807Z,34.75
2019-06-26T17:29:36.752Z,34.77
2019-06-26T17:34:41.142Z,34.57
2019-06-26T17:39:46.364Z,34.43
2019-06-26T17:44:50.697Z,34.43
2019-06-26T17:49:55.980Z,34.40
2019-06-26T17:55:00.251Z,34.37
2019-06-26T18:00:06.906Z,34.26
2019-06-26T18:05:11.807Z,34.21
2019-06-26T18:10:16.036Z,34.19
2019-06-26T18:15:20.328Z,34.02
2019-06-26T18:20:24.657Z,34.09
2019-06-26T18:25:29.040Z,33.86
2019-06-26T18:30:33.648Z,33.64
2019-06-26T18:35:38.052Z,33.51
2019-06-26T18:40:42.476Z,33.58
2019-06-26T18:45:46.741Z,33.46
2019-06-26T18:50:51.025Z,33.40
2019-06-26T18:55:55.682Z,33.38
2019-06-26T19:00:59.942Z,33.23
2019-06-26T19:06:04.302Z,33.04
2019-06-26T19:11:08.619Z,33.04
2019-06-26T19:16:12.899Z,32.92
2019-06-26T19:21:17.226Z,32.77
2019-06-26T19:26:23.959Z,32.64
2019-06-26T19:31:28.362Z,32.37
2019-06-26T19:36:45.874Z,32.37
2019-06-26T19:41:39.002Z,32.23
2019-06-26T19:46:43.490Z,32.18
2019-06-26T19:51:47.786Z,32.16
2019-06-26T19:56:52.104Z,31.95
2019-06-26T20:01:56.377Z,31.81
2019-06-26T20:07:00.705Z,31.59
2019-06-26T20:12:05.007Z,31.52
2019-06-26T20:17:09.285Z,31.37
2019-06-26T20:22:13.572Z,31.31
2019-06-26T20:27:17.869Z,31.13
2019-06-26T20:32:22.163Z,31.01
2019-06-26T20:37:26.821Z,30.86
2019-06-26T20:42:31.077Z,30.85
2019-06-26T20:47:35.362Z,30.64
2019-06-26T20:52:39.636Z,30.58
2019-06-26T20:57:43.919Z,30.41
2019-06-26T21:02:48.184Z,30.30
2019-06-26T21:07:55.169Z,30.20
2019-06-26T21:12:59.404Z,30.10
2019-06-26T21:18:03.761Z,30.06
2019-06-26T21:23:18.026Z,29.95
2019-06-26T21:28:14.180Z,29.92
2019-06-26T21:33:18.454Z,29.78
2019-06-26T21:38:22.761Z,29.74
2019-06-26T21:43:27.037Z,29.66
2019-06-26T21:48:31.372Z,29.55
2019-06-26T21:53:35.677Z,29.40
2019-06-26T21:58:57.706Z,29.30
2019-06-26T22:04:19.837Z,29.31
2019-06-26T22:09:25.757Z,29.28
2019-06-26T22:14:30.175Z,29.28
2019-06-26T22:19:34.509Z,29.17
2019-06-26T22:24:38.784Z,29.11
2019-06-26T22:29:44.056Z,28.96
2019-06-26T22:34:48.352Z,28.90
2019-06-26T22:39:52.646Z,28.84
2019-06-26T22:44:56.920Z,28.74
2019-06-26T22:50:01.219Z,28.71
2019-06-26T22:55:08.632Z,28.65
2019-06-26T23:00:15.359Z,28.59
2019-06-26T23:05:19.610Z,28.60
2019-06-26T23:10:23.897Z,28.49
2019-06-26T23:15:28.200Z,28.31
2019-06-26T23:20:32.508Z,28.05
2019-06-26T23:25:36.835Z,28.21
2019-06-26T23:30:41.128Z,27.88
2019-06-26T23:35:45.412Z,28.04
2019-06-26T23:40:49.680Z,27.69
2019-06-26T23:45:53.954Z,27.57
2019-06-26T23:50:58.292Z,27.56
2019-06-26T23:56:02.590Z,27.40
